Time;durP1;ratioP1;P1;durP2;ratioP2;P2;SDS_P1;SDS_P2;PMS_P1;PMS_P2;Temp;Humidity;BMP_temperature;BMP_pressure;BME280_temperature;BME280_humidity;BME280_pressure;Samples;Min_cycle;Max_cycle;Signal;HPM_P1;HPM_P2
2023/02/09 00:01:24;;;;;;;6.43;5.95;;;16.10;59.90;;;;;;5043530;28;20045;-12
2023/02/09 00:03:50;;;;;;;6.60;5.88;;;16.00;59.90;;;;;;5044454;28;20422;-12
2023/02/09 00:06:17;;;;;;;6.10;5.60;;;16.10;60.00;;;;;;5045627;28;20050;-12
2023/02/09 00:08:43;;;;;;;5.90;5.47;;;16.10;59.70;;;;;;5037920;28;20135;-12
2023/02/09 00:11:11;;;;;;;6.25;5.75;;;16.10;59.90;;;;;;5028646;28;20059;-12
2023/02/09 00:13:37;;;;;;;5.78;5.28;;;16.10;59.80;;;;;;5028497;28;20984;-12
2023/02/09 00:16:03;;;;;;;6.13;5.63;;;16.10;59.80;;;;;;5027827;28;20454;-13
2023/02/09 00:18:32;;;;;;;5.50;5.10;;;16.10;59.70;;;;;;5023344;28;20704;-23
2023/02/09 00:21:09;;;;;;;5.40;5.00;;;16.00;59.90;;;;;;5027622;28;20040;-12
2023/02/09 00:23:37;;;;;;;5.80;5.40;;;16.00;59.90;;;;;;5029288;28;20409;-12
2023/02/09 00:26:05;;;;;;;6.40;5.90;;;15.90;59.90;;;;;;5035173;28;20040;-12
2023/02/09 00:28:31;;;;;;;6.40;5.90;;;16.00;59.50;;;;;;5026039;28;20059;-12
2023/02/09 00:30:56;;;;;;;5.57;5.13;;;16.00;60.00;;;;;;5026079;28;21184;-12
2023/02/09 00:33:22;;;;;;;5.78;5.28;;;16.00;59.80;;;;;;5031168;28;20049;-12
2023/02/09 00:35:47;;;;;;;5.60;5.13;;;16.00;59.70;;;;;;5039718;28;20068;-12
2023/02/09 00:38:13;;;;;;;5.38;4.95;;;16.00;59.70;;;;;;5037402;28;20540;-12
2023/02/09 00:40:39;;;;;;;5.88;5.38;;;16.00;59.60;;;;;;5040575;28;20048;-13
2023/02/09 00:43:05;;;;;;;5.03;4.63;;;16.00;59.80;;;;;;5034889;28;20044;-12
2023/02/09 00:45:30;;;;;;;5.43;5.03;;;16.00;59.70;;;;;;5035630;28;22076;-13
2023/02/09 00:47:56;;;;;;;5.75;5.20;;;16.00;59.50;;;;;;5039516;28;20083;-12
2023/02/09 00:50:22;;;;;;;4.70;4.40;;;15.90;59.70;;;;;;5039789;28;20056;-13
2023/02/09 00:52:47;;;;;;;5.78;5.28;;;15.90;59.70;;;;;;5037693;28;20052;-18
2023/02/09 00:55:13;;;;;;;5.38;4.97;;;16.00;59.50;;;;;;5037196;28;20619;-9
2023/02/09 00:57:39;;;;;;;5.80;5.38;;;16.00;59.50;;;;;;5038865;28;20044;-12
2023/02/09 01:00:05;;;;;;;4.75;4.45;;;16.00;59.40;;;;;;5037282;28;20075;-12
2023/02/09 01:02:30;;;;;;;5.43;5.03;;;16.00;59.50;;;;;;5035225;28;20149;-12
2023/02/09 01:04:56;;;;;;;4.95;4.65;;;16.00;59.50;;;;;;5040102;28;20477;-13
2023/02/09 01:07:22;;;;;;;5.55;4.68;;;15.80;60.50;;;;;;5034067;28;20542;-12
2023/02/09 01:09:47;;;;;;;5.25;4.85;;;15.90;59.60;;;;;;5036574;28;20045;-12
2023/02/09 01:12:13;;;;;;;5.07;4.70;;;15.90;59.60;;;;;;5032861;28;20044;-11
2023/02/09 01:14:38;;;;;;;5.47;5.07;;;15.90;59.70;;;;;;5040607;28;20801;-16
2023/02/09 01:17:04;;;;;;;5.60;5.10;;;15.90;59.70;;;;;;5037251;28;20044;-11
2023/02/09 01:19:30;;;;;;;5.72;5.32;;;15.90;59.70;;;;;;5036021;28;20423;-12
2023/02/09 01:21:55;;;;;;;5.60;5.13;;;15.80;59.70;;;;;;5043179;28;20128;-15
2023/02/09 01:24:21;;;;;;;5.75;5.00;;;15.80;59.80;;;;;;5047887;28;20043;-18
2023/02/09 01:26:46;;;;;;;6.00;5.53;;;15.70;60.10;;;;;;5048024;28;20098;-17
2023/02/09 01:29:13;;;;;;;6.50;5.85;;;15.70;59.90;;;;;;5047307;28;20060;-19
2023/02/09 01:31:39;;;;;;;5.93;5.40;;;15.70;60.10;;;;;;5048320;28;20053;-13
2023/02/09 01:34:05;;;;;;;6.13;5.53;;;15.70;60.10;;;;;;5048098;28;21065;-13
2023/02/09 01:36:31;;;;;;;7.88;6.75;;;15.70;60.10;;;;;;5048865;28;20049;-14
2023/02/09 01:38:58;;;;;;;7.47;6.25;;;15.70;60.00;;;;;;5050411;28;20544;-13
2023/02/09 01:41:24;;;;;;;7.10;6.40;;;15.70;60.00;;;;;;5048060;28;20190;-15
2023/02/09 01:43:52;;;;;;;7.20;6.50;;;15.70;60.10;;;;;;5049314;28;20041;-13
2023/02/09 01:46:17;;;;;;;7.32;6.63;;;15.60;60.20;;;;;;5046505;28;20132;-12
2023/02/09 01:48:43;;;;;;;7.05;6.40;;;15.70;59.70;;;;;;5049060;28;20869;-12
2023/02/09 01:51:09;;;;;;;7.10;6.38;;;15.70;59.90;;;;;;5051190;28;20091;-12
2023/02/09 01:53:34;;;;;;;7.97;6.97;;;15.70;59.80;;;;;;5030258;28;20045;-13
2023/02/09 01:56:08;;;;;;;7.88;6.25;;;15.70;59.90;;;;;;5049182;28;20070;-12
2023/02/09 01:58:34;;;;;;;;;;;15.60;60.00;;;;;;5051058;28;20820;-12
2023/02/09 02:00:59;;;;;;;8.95;7.30;;;15.60;59.90;;;;;;5047290;28;19917;-20
2023/02/09 02:03:25;;;;;;;8.40;7.43;;;15.60;60.00;;;;;;5045767;28;20053;-14
2023/02/09 02:05:52;;;;;;;8.55;6.82;;;15.60;60.00;;;;;;5053323;28;21000;-27
2023/02/09 02:08:19;;;;;;;8.15;6.20;;;15.60;60.90;;;;;;5051942;28;20639;-19
2023/02/09 02:10:45;;;;;;;8.77;6.93;;;15.60;59.80;;;;;;5051996;28;20106;-21
2023/02/09 02:13:10;;;;;;;7.22;6.53;;;15.60;59.90;;;;;;5049034;28;20072;-20
2023/02/09 02:15:59;;;;;;;7.28;6.35;;;15.60;60.00;;;;;;5048252;28;20071;-19
2023/02/09 02:19:00;;;;;;;7.70;6.88;;;15.60;59.90;;;;;;5051224;28;20648;-19
2023/02/09 02:21:43;;;;;;;7.10;6.50;;;15.50;59.90;;;;;;4994474;28;20045;-20
2023/02/09 02:24:36;;;;;;;7.35;6.68;;;15.50;60.10;;;;;;5002896;28;20474;-17
2023/02/09 02:27:07;;;;;;;7.47;6.75;;;15.50;60.00;;;;;;5015128;28;20115;-20
2023/02/09 02:30:01;;;;;;;6.50;5.85;;;15.50;60.10;;;;;;5016057;28;20128;-17
2023/02/09 02:32:50;;;;;;;6.40;5.80;;;15.50;60.10;;;;;;5013775;28;20506;-16
2023/02/09 02:35:40;;;;;;;6.53;5.90;;;15.50;60.10;;;;;;4978469;28;20136;-18
2023/02/09 02:38:11;;;;;;;6.25;5.65;;;15.60;59.70;;;;;;4982772;28;20041;-17
2023/02/09 02:41:08;;;;;;;6.25;5.75;;;15.50;59.90;;;;;;4996033;28;20045;-17
2023/02/09 02:43:51;;;;;;;5.97;5.38;;;15.50;59.90;;;;;;4994508;28;20394;-17
2023/02/09 02:46:37;;;;;;;6.22;5.70;;;15.50;59.80;;;;;;4981108;28;20207;-17
2023/02/09 02:49:18;;;;;;;6.22;5.72;;;15.40;59.80;;;;;;4982161;28;20450;-26
2023/02/09 02:51:45;;;;;;;7.05;6.45;;;15.60;59.70;;;;;;4993622;28;20104;-17
2023/02/09 02:54:15;;;;;;;6.82;6.30;;;15.60;59.80;;;;;;4965233;28;21748;-17
2023/02/09 02:56:46;;;;;;;6.50;5.88;;;15.50;60.10;;;;;;5008352;28;20056;-19
2023/02/09 02:59:13;;;;;;;6.90;6.20;;;15.50;60.60;;;;;;5037181;28;20047;-16
2023/02/09 03:01:42;;;;;;;6.85;6.15;;;15.40;60.70;;;;;;4979890;28;20095;-19
2023/02/09 03:04:07;;;;;;;6.57;5.88;;;15.50;60.90;;;;;;5027065;28;20060;-18
2023/02/09 03:06:33;;;;;;;6.45;5.85;;;15.40;60.80;;;;;;5036809;28;20134;-17
2023/02/09 03:08:58;;;;;;;5.85;5.40;;;15.40;61.10;;;;;;5035693;28;20465;-17
2023/02/09 03:11:28;;;;;;;5.65;5.20;;;15.40;61.00;;;;;;5032995;28;20051;-17
2023/02/09 03:14:16;;;;;;;5.60;5.20;;;15.50;61.20;;;;;;5035312;28;20087;-19
2023/02/09 03:17:04;;;;;;;6.03;5.53;;;15.40;61.10;;;;;;5034214;28;20056;-20
2023/02/09 03:19:38;;;;;;;6.40;5.75;;;15.30;61.20;;;;;;5031298;28;20052;-19
2023/02/09 03:22:16;;;;;;;5.55;5.05;;;15.30;61.30;;;;;;5034532;28;20051;-17
2023/02/09 03:25:01;;;;;;;5.95;5.43;;;15.40;61.20;;;;;;5030414;28;20156;-17
2023/02/09 03:27:39;;;;;;;5.30;4.90;;;15.40;61.10;;;;;;5030073;28;20041;-21
2023/02/09 03:30:06;;;;;;;5.75;5.35;;;15.50;61.20;;;;;;5041490;28;22470;-17
2023/02/09 03:32:32;;;;;;;5.97;5.55;;;15.40;61.10;;;;;;5029630;28;20083;-18
2023/02/09 03:34:57;;;;;;;6.03;5.43;;;15.40;61.20;;;;;;5025954;28;20074;-19
2023/02/09 03:37:23;;;;;;;5.90;5.40;;;15.40;61.10;;;;;;5029911;28;20037;-15
2023/02/09 03:39:49;;;;;;;5.85;5.35;;;15.40;61.00;;;;;;5033945;28;20057;-18
2023/02/09 03:42:14;;;;;;;5.45;5.00;;;15.40;61.10;;;;;;5034157;28;20774;-22
2023/02/09 03:44:40;;;;;;;5.30;4.90;;;15.40;61.00;;;;;;5035185;28;20465;-22
2023/02/09 03:47:07;;;;;;;5.78;5.13;;;15.40;61.10;;;;;;5029814;28;20383;-17
2023/02/09 03:49:34;;;;;;;5.75;5.35;;;15.40;61.10;;;;;;5031804;28;20102;-19
2023/02/09 03:52:00;;;;;;;5.22;4.85;;;15.40;60.80;;;;;;5032115;28;20762;-18
2023/02/09 03:54:27;;;;;;;5.70;5.20;;;15.40;60.80;;;;;;5031091;28;20138;-17
2023/02/09 03:56:53;;;;;;;5.93;5.43;;;15.50;60.50;;;;;;5030680;28;20075;-17
2023/02/09 03:59:20;;;;;;;5.18;4.78;;;15.40;60.60;;;;;;5032758;28;20517;-17
2023/02/09 04:01:46;;;;;;;5.80;5.35;;;15.40;60.70;;;;;;5031302;28;20049;-17
2023/02/09 04:04:11;;;;;;;5.82;5.32;;;15.40;60.70;;;;;;5030708;28;20094;-18
2023/02/09 04:06:37;;;;;;;5.40;5.03;;;15.40;60.70;;;;;;5031512;28;20104;-17
2023/02/09 04:09:03;;;;;;;5.20;4.80;;;15.40;60.70;;;;;;5029356;28;20064;-18
2023/02/09 04:11:29;;;;;;;5.88;5.28;;;15.50;60.50;;;;;;5034859;28;20056;-17
2023/02/09 04:13:55;;;;;;;4.90;4.47;;;15.50;60.50;;;;;;5031393;28;20131;-22
2023/02/09 04:16:20;;;;;;;4.90;4.50;;;15.40;60.50;;;;;;5034802;28;20057;-18
2023/02/09 04:18:46;;;;;;;5.30;4.90;;;15.40;60.60;;;;;;5029814;28;20449;-19
2023/02/09 04:21:12;;;;;;;4.88;4.57;;;15.50;60.30;;;;;;5031736;28;21521;-17
2023/02/09 04:23:37;;;;;;;4.30;4.00;;;15.60;60.20;;;;;;5030762;28;20417;-17
2023/02/09 04:26:03;;;;;;;4.65;4.35;;;15.50;60.00;;;;;;5032537;28;20044;-18
2023/02/09 04:28:29;;;;;;;4.97;4.57;;;15.50;60.10;;;;;;5031357;28;20056;-19
2023/02/09 04:30:54;;;;;;;5.45;5.05;;;15.50;60.20;;;;;;5035431;28;20041;-16
2023/02/09 04:33:21;;;;;;;4.88;4.47;;;15.40;60.20;;;;;;5030190;28;20055;-17
2023/02/09 04:35:47;;;;;;;4.95;4.55;;;15.50;60.10;;;;;;5031222;28;20514;-17
2023/02/09 04:38:18;;;;;;;4.82;4.43;;;15.50;59.90;;;;;;5033230;28;20187;-17
2023/02/09 04:40:44;;;;;;;4.95;4.55;;;15.40;60.10;;;;;;5045466;28;20147;-17
2023/02/09 04:43:10;;;;;;;4.90;4.50;;;15.50;60.10;;;;;;5035287;28;20064;-19
2023/02/09 04:45:39;;;;;;;4.60;4.20;;;15.40;60.30;;;;;;5030621;28;20053;-17
2023/02/09 04:48:05;;;;;;;4.47;4.18;;;15.50;60.10;;;;;;5033258;28;20049;-17
2023/02/09 04:50:31;;;;;;;4.63;4.32;;;15.40;60.20;;;;;;5031150;28;20068;-21
2023/02/09 04:52:56;;;;;;;4.25;3.95;;;15.40;60.20;;;;;;5031696;28;20359;-17
2023/02/09 04:55:22;;;;;;;5.10;4.70;;;15.50;60.10;;;;;;5032848;28;20147;-18
2023/02/09 05:00:32;;;;;;;5.10;4.70;;;15.40;60.00;;;;;;5031885;28;20067;-18
2023/02/09 05:02:57;;;;;;;4.97;4.65;;;15.50;59.70;;;;;;5030519;28;20425;-17
2023/02/09 05:05:23;;;;;;;4.88;4.53;;;15.40;60.00;;;;;;5034539;28;20041;-20
2023/02/09 05:07:49;;;;;;;4.78;4.47;;;15.40;60.00;;;;;;5032852;28;20084;-24
2023/02/09 05:10:14;;;;;;;4.78;4.38;;;15.40;59.90;;;;;;5033651;28;20106;-20
2023/02/09 05:12:40;;;;;;;4.55;4.25;;;15.40;59.80;;;;;;5033907;28;20098;-20
2023/02/09 05:15:06;;;;;;;4.63;4.30;;;15.50;59.80;;;;;;5033834;28;20131;-21
2023/02/09 05:17:32;;;;;;;4.85;4.40;;;15.40;59.70;;;;;;5033063;28;20066;-18
2023/02/09 05:19:58;;;;;;;5.10;4.70;;;15.40;59.80;;;;;;5036002;28;20059;-17
2023/02/09 05:22:23;;;;;;;4.85;4.55;;;15.40;59.80;;;;;;5036001;28;20778;-19
2023/02/09 05:24:49;;;;;;;5.28;4.88;;;15.50;59.80;;;;;;5034030;28;20101;-22
2023/02/09 05:27:14;;;;;;;5.03;4.63;;;15.40;59.70;;;;;;5034805;28;21879;-20
2023/02/09 05:29:40;;;;;;;4.55;4.22;;;15.40;59.80;;;;;;5035911;28;20056;-20
2023/02/09 05:32:05;;;;;;;5.25;4.90;;;15.40;59.70;;;;;;5033458;28;20049;-21
2023/02/09 05:34:31;;;;;;;4.68;4.38;;;15.40;59.80;;;;;;5033498;28;20433;-20
2023/02/09 05:36:57;;;;;;;4.55;4.22;;;15.30;59.80;;;;;;5036146;28;20122;-26
2023/02/09 05:39:22;;;;;;;4.88;4.57;;;15.30;59.90;;;;;;5036052;28;20513;-18
2023/02/09 05:44:32;;;;;;;;;;;15.30;59.80;;;;;;5034893;28;20097;-17
2023/02/09 05:46:58;;;;;;;5.10;4.60;;;15.50;59.50;;;;;;5034016;28;20402;-18
2023/02/09 05:49:23;;;;;;;4.38;4.07;;;15.40;59.60;;;;;;5035805;28;20252;-21
2023/02/09 05:51:49;;;;;;;5.40;4.90;;;15.40;59.70;;;;;;5033427;28;20051;-17
2023/02/09 05:54:14;;;;;;;5.50;5.07;;;15.40;59.50;;;;;;5034584;28;20048;-18
2023/02/09 05:56:40;;;;;;;5.03;4.63;;;15.30;59.50;;;;;;5030904;28;20147;-23
2023/02/09 05:59:06;;;;;;;4.88;4.57;;;15.40;59.70;;;;;;5033924;28;20559;-19
2023/02/09 06:01:31;;;;;;;5.43;5.03;;;15.30;59.80;;;;;;5033487;28;20941;-17
2023/02/09 06:03:57;;;;;;;4.68;4.38;;;15.40;59.70;;;;;;5041062;28;20062;-22
2023/02/09 06:06:22;;;;;;;4.45;4.15;;;15.30;59.50;;;;;;5038605;28;20106;-19
2023/02/09 06:08:48;;;;;;;4.50;4.20;;;15.40;59.60;;;;;;5036434;28;20076;-21
2023/02/09 06:11:14;;;;;;;5.00;4.70;;;15.20;59.90;;;;;;5026505;28;20493;-18
2023/02/09 06:13:39;;;;;;;7.40;4.68;;;15.10;60.70;;;;;;5036628;28;20064;-22
2023/02/09 06:16:05;;;;;;;5.30;4.90;;;14.90;61.80;;;;;;5044432;28;20058;-16
2023/02/09 06:18:30;;;;;;;6.30;5.80;;;14.80;62.50;;;;;;5046648;28;20045;-18
2023/02/09 06:20:57;;;;;;;6.13;5.63;;;14.90;62.30;;;;;;5056437;28;20049;-24
2023/02/09 06:23:22;;;;;;;5.93;5.43;;;15.00;62.10;;;;;;5039333;28;20051;-20
2023/02/09 06:25:51;;;;;;;5.85;5.38;;;15.20;61.40;;;;;;5042880;28;22878;-17
2023/02/09 06:28:18;;;;;;;6.30;5.70;;;15.20;61.10;;;;;;5040472;28;20658;-18
2023/02/09 06:30:45;;;;;;;7.55;6.72;;;15.30;60.60;;;;;;5038339;28;20040;-19
2023/02/09 06:33:11;;;;;;;7.07;6.47;;;15.30;61.60;;;;;;5030283;28;20748;-18
2023/02/09 06:35:36;;;;;;;6.75;6.15;;;15.20;61.50;;;;;;5031375;28;20044;-18
2023/02/09 06:38:02;;;;;;;7.13;6.32;;;15.20;61.50;;;;;;5031122;28;20135;-17
2023/02/09 06:40:28;;;;;;;6.90;6.30;;;15.30;61.50;;;;;;5031517;28;20533;-18
2023/02/09 06:42:53;;;;;;;6.10;5.60;;;15.20;61.50;;;;;;5031471;28;20056;-18
2023/02/09 06:45:19;;;;;;;6.50;5.85;;;15.20;61.70;;;;;;5029143;28;20472;-17
2023/02/09 06:47:45;;;;;;;6.32;5.70;;;15.20;61.80;;;;;;5030139;28;20044;-20
2023/02/09 06:50:11;;;;;;;7.43;6.55;;;15.20;62.30;;;;;;5036414;28;20059;-30
2023/02/09 06:52:37;;;;;;;8.80;6.18;;;15.30;62.10;;;;;;5032280;28;20068;-20
2023/02/09 06:55:03;;;;;;;6.10;5.60;;;15.40;62.00;;;;;;5033486;28;20187;-17
2023/02/09 06:57:29;;;;;;;6.47;5.75;;;15.50;61.90;;;;;;5034012;28;20126;-19
2023/02/09 06:59:54;;;;;;;6.43;5.88;;;15.50;61.80;;;;;;5031068;28;20051;-19
2023/02/09 07:02:20;;;;;;;6.82;5.60;;;15.40;62.00;;;;;;5042040;28;20059;-18
2023/02/09 07:04:45;;;;;;;7.03;6.30;;;15.50;62.10;;;;;;5039613;28;20052;-23
2023/02/09 07:07:11;;;;;;;6.40;5.80;;;15.40;62.30;;;;;;5039893;28;20054;-19
2023/02/09 07:09:36;;;;;;;6.43;5.70;;;15.20;63.60;;;;;;5035957;28;20101;-18
2023/02/09 07:12:02;;;;;;;7.25;4.88;;;15.30;63.70;;;;;;5031726;28;20607;-25
2023/02/09 07:14:28;;;;;;;6.28;5.20;;;15.10;64.50;;;;;;5036151;28;20037;-24
2023/02/09 07:16:53;;;;;;;5.65;5.25;;;15.10;64.70;;;;;;5032209;28;20119;-18
2023/02/09 07:19:19;;;;;;;5.53;5.13;;;15.10;64.90;;;;;;5043696;28;20391;-18
2023/02/09 07:21:45;;;;;;;6.05;5.55;;;15.10;64.80;;;;;;5040893;28;20059;-18
2023/02/09 07:24:10;;;;;;;5.75;5.35;;;15.10;65.10;;;;;;5039503;28;20052;-18
2023/02/09 07:26:36;;;;;;;7.03;6.28;;;15.00;65.10;;;;;;5045359;28;20024;-20
2023/02/09 07:29:01;;;;;;;5.65;5.15;;;15.20;64.80;;;;;;5044169;28;20059;-16
2023/02/09 07:31:27;;;;;;;5.55;5.05;;;15.20;65.60;;;;;;5045001;28;20113;-22
2023/02/09 07:33:54;;;;;;;5.45;4.95;;;15.20;65.80;;;;;;5043832;28;20075;-17
2023/02/09 07:36:20;;;;;;;5.97;5.47;;;15.10;65.40;;;;;;5047099;28;20761;-17
2023/02/09 07:38:45;;;;;;;6.85;5.32;;;15.10;65.70;;;;;;5046287;28;20570;-16
2023/02/09 07:41:14;;;;;;;5.90;5.40;;;15.10;65.90;;;;;;5048014;28;20037;-17
2023/02/09 07:43:40;;;;;;;5.50;5.10;;;15.10;65.70;;;;;;5045898;28;20127;-17
2023/02/09 07:46:06;;;;;;;5.25;4.85;;;15.10;65.90;;;;;;5046349;28;20386;-22
2023/02/09 07:48:32;;;;;;;6.53;5.97;;;15.20;65.60;;;;;;5047512;28;20048;-17
2023/02/09 07:50:57;;;;;;;5.30;4.90;;;15.30;65.50;;;;;;5045653;28;20045;-18
2023/02/09 07:53:23;;;;;;;5.93;5.50;;;15.20;65.60;;;;;;5048052;28;20044;-17
2023/02/09 07:55:49;;;;;;;5.85;5.35;;;15.20;65.50;;;;;;5046422;28;20044;-23
2023/02/09 07:58:17;;;;;;;5.65;5.25;;;15.20;65.40;;;;;;5046261;28;20043;-18
2023/02/09 08:00:44;;;;;;;6.63;5.53;;;15.20;65.30;;;;;;5046926;28;20090;-17
2023/02/09 08:03:09;;;;;;;6.97;6.25;;;15.30;65.40;;;;;;5046895;28;20056;-22
2023/02/09 08:05:45;;;;;;;5.70;5.20;;;15.20;65.50;;;;;;5050072;28;20041;-21
2023/02/09 08:08:11;;;;;;;6.30;5.13;;;15.20;65.40;;;;;;5033768;28;20517;-15
2023/02/09 08:10:37;;;;;;;5.90;5.30;;;15.20;65.30;;;;;;5046142;28;20051;-12
2023/02/09 08:13:02;;;;;;;5.85;5.35;;;15.30;65.30;;;;;;5047404;28;20457;-15
2023/02/09 08:15:39;;;;;;;12.00;4.72;;;15.20;65.50;;;;;;5048054;28;20222;-17
2023/02/09 08:18:09;;;;;;;6.00;5.50;;;15.20;66.90;;;;;;5046570;28;20494;-17
2023/02/09 08:20:34;;;;;;;4.97;4.57;;;15.20;66.30;;;;;;5050771;28;20090;-13
2023/02/09 08:23:09;;;;;;;5.95;5.43;;;15.20;66.30;;;;;;5047822;28;20053;-12
2023/02/09 08:25:35;;;;;;;5.88;5.38;;;15.20;66.20;;;;;;5048369;28;20055;-13
2023/02/09 08:28:00;;;;;;;4.88;4.47;;;15.30;65.60;;;;;;5047063;28;20060;-12
2023/02/09 08:30:26;;;;;;;5.32;4.93;;;15.20;65.60;;;;;;5047254;28;20077;-12
2023/02/09 08:32:52;;;;;;;7.97;5.75;;;15.20;65.50;;;;;;5050877;28;20064;-12
2023/02/09 08:35:17;;;;;;;5.07;4.68;;;15.20;65.50;;;;;;5048152;28;20041;-12
2023/02/09 08:37:43;;;;;;;6.43;5.65;;;15.20;65.90;;;;;;5045983;28;20032;-12
2023/02/09 08:40:09;;;;;;;6.65;5.68;;;15.20;65.60;;;;;;5047161;28;20037;-12
2023/02/09 08:42:34;;;;;;;5.95;5.45;;;15.20;65.40;;;;;;5049769;28;20040;-14
2023/02/09 08:45:00;;;;;;;5.07;4.78;;;15.20;65.40;;;;;;5051079;28;20037;-18
2023/02/09 08:47:25;;;;;;;6.05;5.10;;;15.10;65.70;;;;;;5050286;28;20033;-14
2023/02/09 08:49:51;;;;;;;5.60;5.20;;;15.20;65.40;;;;;;5050207;28;20529;-13
2023/02/09 08:52:17;;;;;;;5.78;5.28;;;15.10;65.50;;;;;;5051799;28;20422;-14
2023/02/09 08:54:43;;;;;;;5.55;5.00;;;15.20;65.70;;;;;;5048658;28;20036;-14
2023/02/09 08:57:08;;;;;;;5.50;5.10;;;15.20;65.60;;;;;;5050717;28;20044;-14
2023/02/09 08:59:34;;;;;;;5.20;4.70;;;15.20;65.70;;;;;;5052938;28;20082;-14
2023/02/09 09:01:59;;;;;;;5.45;4.88;;;15.20;65.50;;;;;;5048184;28;20040;-14
2023/02/09 09:04:25;;;;;;;5.78;5.28;;;15.30;65.40;;;;;;5051008;28;20040;-13
2023/02/09 09:06:51;;;;;;;5.30;4.90;;;15.30;65.50;;;;;;5048497;28;21429;-13
2023/02/09 09:09:16;;;;;;;4.82;4.40;;;15.20;65.50;;;;;;5051877;28;20046;-13
2023/02/09 09:11:42;;;;;;;6.90;5.13;;;15.20;65.60;;;;;;5049600;28;20033;-13
2023/02/09 09:14:07;;;;;;;5.55;4.85;;;15.20;65.50;;;;;;5048597;28;20048;-13
2023/02/09 09:16:33;;;;;;;6.03;4.78;;;15.20;65.70;;;;;;5049325;28;20036;-13
2023/02/09 09:18:59;;;;;;;4.70;4.40;;;15.20;65.80;;;;;;5047698;28;20083;-13
2023/02/09 09:21:24;;;;;;;5.00;4.50;;;15.20;65.80;;;;;;5051067;28;20490;-14
2023/02/09 09:23:50;;;;;;;5.10;4.70;;;15.20;65.80;;;;;;5047264;28;20083;-13
2023/02/09 09:26:16;;;;;;;5.60;5.10;;;15.20;65.90;;;;;;5050962;28;20040;-14
2023/02/09 09:28:41;;;;;;;5.85;5.35;;;15.20;65.80;;;;;;5049921;28;20148;-12
2023/02/09 09:31:12;;;;;;;5.38;4.97;;;15.20;65.60;;;;;;5048563;28;20045;-12
2023/02/09 09:33:37;;;;;;;5.82;5.32;;;15.20;65.60;;;;;;5051051;28;20056;-12
2023/02/09 09:36:04;;;;;;;4.97;4.43;;;15.20;65.90;;;;;;5048236;28;20445;-22
2023/02/09 09:38:29;;;;;;;4.70;4.40;;;15.20;65.90;;;;;;5052491;28;20045;-16
2023/02/09 09:40:55;;;;;;;5.53;5.07;;;15.20;65.90;;;;;;5049249;28;20029;-13
2023/02/09 09:43:37;;;;;;;4.80;4.40;;;15.30;65.80;;;;;;5040359;28;20040;-12
2023/02/09 09:46:03;;;;;;;4.95;4.55;;;15.20;65.70;;;;;;5043332;28;20401;-12
2023/02/09 09:48:41;;;;;;;6.82;5.35;;;15.30;65.70;;;;;;5022250;28;20514;-12
2023/02/09 09:51:33;;;;;;;5.15;4.65;;;15.30;65.60;;;;;;5047994;28;25682;-13
2023/02/09 09:53:58;;;;;;;5.93;4.93;;;15.30;65.50;;;;;;5048304;28;20416;-12
2023/02/09 09:56:24;;;;;;;4.95;4.50;;;15.50;65.30;;;;;;5049873;28;20057;-12
2023/02/09 09:58:50;;;;;;;4.57;4.30;;;15.40;65.60;;;;;;5047676;28;20733;-13
2023/02/09 10:01:17;;;;;;;4.82;4.53;;;15.30;65.70;;;;;;5031913;28;20405;-12
2023/02/09 10:03:42;;;;;;;4.75;4.45;;;15.30;65.90;;;;;;5045348;28;20048;-13
2023/02/09 10:06:13;;;;;;;5.07;4.68;;;15.30;65.80;;;;;;5048401;28;20527;-12
2023/02/09 10:08:45;;;;;;;5.35;4.95;;;15.30;65.90;;;;;;5048879;28;20060;-12
2023/02/09 10:11:15;;;;;;;5.43;5.03;;;15.20;65.80;;;;;;5048456;28;20040;-12
2023/02/09 10:13:52;;;;;;;4.68;4.38;;;15.30;65.90;;;;;;5048266;28;20048;-12
2023/02/09 10:16:18;;;;;;;4.75;4.47;;;15.30;65.70;;;;;;5047506;28;20533;-12
2023/02/09 10:18:44;;;;;;;4.88;4.57;;;15.30;65.40;;;;;;5047834;28;20037;-15
2023/02/09 10:21:11;;;;;;;7.07;5.30;;;15.30;65.70;;;;;;5049963;28;20040;-12
2023/02/09 10:23:45;;;;;;;6.15;5.57;;;15.40;65.30;;;;;;5050149;28;20132;-12
2023/02/09 10:26:11;;;;;;;4.91;4.59;;;15.30;65.50;;;;;;4696498;28;10001311;-13
2023/02/09 10:28:38;;;;;;;6.72;6.00;;;15.30;65.50;;;;;;5039489;28;20044;-12
2023/02/09 10:31:28;;;;;;;6.80;6.10;;;15.30;65.50;;;;;;5043081;28;20051;-13
2023/02/09 10:34:03;;;;;;;9.07;6.07;;;15.20;65.90;;;;;;5044746;28;20131;-12
2023/02/09 10:36:37;;;;;;;8.10;5.70;;;15.20;65.50;;;;;;5045380;28;20051;-23
2023/02/09 10:39:17;;;;;;;8.05;5.65;;;15.20;65.70;;;;;;5031598;28;20080;-13
2023/02/09 10:41:45;;;;;;;7.35;6.03;;;15.30;66.10;;;;;;5063242;28;20037;-21
2023/02/09 10:44:21;;;;;;;6.60;6.00;;;15.20;66.00;;;;;;5045331;28;20052;-13
2023/02/09 10:46:47;;;;;;;7.57;6.57;;;15.20;66.00;;;;;;5036458;28;20099;-12
2023/02/09 10:49:31;;;;;;;7.47;6.05;;;15.20;66.00;;;;;;5044749;28;20048;-12
2023/02/09 10:52:06;;;;;;;;;;;15.20;66.20;;;;;;5042427;28;20043;-13
2023/02/09 10:54:32;;;;;;;;;;;15.30;66.30;;;;;;5046863;28;19925;-12
2023/02/09 10:56:57;;;;;;;7.32;5.55;;;15.30;66.40;;;;;;5044302;28;19970;-12
2023/02/09 10:59:24;;;;;;;9.88;6.35;;;15.30;66.50;;;;;;5043821;28;20411;-13
2023/02/09 11:01:57;;;;;;;7.45;6.35;;;15.30;66.80;;;;;;5044538;28;20045;-10
2023/02/09 11:04:24;;;;;;;9.18;6.45;;;15.30;66.80;;;;;;5045836;28;20048;-12
2023/02/09 11:07:01;;;;;;;7.88;6.40;;;15.30;67.10;;;;;;5042553;28;20101;-11
2023/02/09 11:09:39;;;;;;;7.85;6.20;;;15.30;66.60;;;;;;5047093;28;20045;-12
2023/02/09 11:12:08;;;;;;;8.25;6.35;;;15.30;67.20;;;;;;5044790;28;20081;-13
2023/02/09 11:14:34;;;;;;;9.77;6.60;;;15.40;66.90;;;;;;5062703;28;20052;-13
2023/02/09 11:17:20;;;;;;;9.48;6.88;;;15.40;67.20;;;;;;5042229;28;20048;-14
2023/02/09 11:20:10;;;;;;;8.60;6.43;;;15.30;67.40;;;;;;4696100;28;9999838;-18
2023/02/09 11:22:48;;;;;;;7.30;6.07;;;15.30;67.20;;;;;;5042921;28;20322;-13
2023/02/09 11:25:19;;;;;;;7.25;6.10;;;15.50;66.90;;;;;;5047057;28;20129;-13
2023/02/09 11:28:05;;;;;;;9.57;6.57;;;15.60;66.10;;;;;;5048077;28;20049;-13
2023/02/09 11:30:50;;;;;;;6.97;5.82;;;15.70;65.90;;;;;;5047003;28;20133;-22
2023/02/09 11:33:53;;;;;;;7.57;5.88;;;15.70;65.40;;;;;;5048127;28;20437;-13
2023/02/09 11:36:44;;;;;;;8.13;5.88;;;15.70;65.50;;;;;;5046337;28;20032;-13
2023/02/09 11:39:14;;;;;;;7.05;5.80;;;15.80;65.10;;;;;;5046714;28;20056;-13
2023/02/09 11:44:35;;;;;;;8.02;6.07;;;15.70;65.30;;;;;;5048780;28;20102;-13
2023/02/09 11:47:05;;;;;;;8.77;5.88;;;15.70;65.00;;;;;;5050054;28;20041;-13
2023/02/09 11:49:43;;;;;;;6.20;5.70;;;15.70;64.90;;;;;;5064311;28;20052;-14
2023/02/09 11:52:10;;;;;;;7.78;5.75;;;15.70;65.70;;;;;;5030647;28;20059;-13
2023/02/09 11:54:35;;;;;;;5.90;5.40;;;15.80;64.70;;;;;;5017561;28;20045;-12
2023/02/09 11:57:06;;;;;;;6.32;5.72;;;15.80;64.50;;;;;;5036127;28;20041;-15
2023/02/09 11:59:40;;;;;;;6.47;5.85;;;15.80;64.50;;;;;;5035205;28;20116;-13
2023/02/09 12:02:20;;;;;;;9.82;6.07;;;15.80;64.60;;;;;;5048805;28;20132;-12
2023/02/09 12:05:02;;;;;;;6.13;5.45;;;15.80;64.50;;;;;;5048816;28;20140;-12
2023/02/09 12:07:27;;;;;;;8.15;5.43;;;15.80;64.60;;;;;;5046596;28;20385;-13
2023/02/09 12:10:27;;;;;;;7.45;5.88;;;15.80;64.40;;;;;;5046793;28;20498;-13
2023/02/09 12:13:15;;;;;;;6.45;5.72;;;15.80;64.50;;;;;;5045623;28;20136;-12
2023/02/09 12:15:52;;;;;;;7.47;6.00;;;15.80;64.40;;;;;;5040660;28;20044;-13
2023/02/09 12:18:20;;;;;;;6.35;5.70;;;15.90;64.30;;;;;;5040522;28;20074;-13
2023/02/09 12:20:55;;;;;;;5.85;5.35;;;15.90;64.20;;;;;;5053177;28;20055;-13
2023/02/09 12:23:33;;;;;;;5.57;5.00;;;15.80;64.70;;;;;;5045777;28;20167;-12
2023/02/09 12:26:02;;;;;;;5.07;4.68;;;15.80;64.40;;;;;;5051088;28;24368;-13
2023/02/09 12:28:31;;;;;;;6.30;5.43;;;15.90;64.50;;;;;;5051035;28;20045;-17
2023/02/09 12:30:57;;;;;;;5.75;5.18;;;16.00;64.50;;;;;;5050490;28;20040;-12
2023/02/09 12:33:23;;;;;;;6.50;5.05;;;15.90;64.50;;;;;;5050500;28;20044;-13
2023/02/09 12:36:12;;;;;;;5.55;4.80;;;16.00;64.40;;;;;;5051836;28;20028;-12
2023/02/09 12:38:50;;;;;;;7.50;4.75;;;15.90;64.20;;;;;;5045133;28;20048;-13
2023/02/09 12:41:19;;;;;;;4.70;4.30;;;15.90;64.20;;;;;;5051146;28;20045;-13
2023/02/09 12:43:45;;;;;;;7.10;4.57;;;15.90;64.00;;;;;;5050338;28;20067;-13
2023/02/09 12:46:19;;;;;;;4.93;4.53;;;16.00;64.10;;;;;;5065640;28;22185;-13
2023/02/09 12:48:45;;;;;;;;;;;15.90;64.20;;;;;;5051623;28;20063;-13
2023/02/09 12:51:52;;;;;;;4.38;4.05;;;15.90;64.20;;;;;;5050471;28;19916;-13
2023/02/09 12:54:45;;;;;;;4.88;4.25;;;15.90;64.30;;;;;;5050289;28;20563;-13
2023/02/09 12:57:14;;;;;;;4.85;4.43;;;15.80;64.40;;;;;;5050025;28;24195;-13
2023/02/09 12:59:48;;;;;;;6.25;4.53;;;15.90;64.50;;;;;;5050549;28;20118;-14
2023/02/09 13:02:37;;;;;;;5.53;4.35;;;15.80;64.40;;;;;;5049599;28;20140;-13
2023/02/09 13:05:11;;;;;;;5.35;4.90;;;15.80;64.60;;;;;;5049810;28;20622;-12
2023/02/09 13:07:52;;;;;;;5.90;4.18;;;15.80;64.80;;;;;;5050074;28;20416;-13